Time;durP1;ratioP1;P1;durP2;ratioP2;P2;SDS_P1;SDS_P2;PMS_P1;PMS_P2;Temp;Humidity;BMP_temperature;BMP_pressure;BME280_temperature;BME280_humidity;BME280_pressure;Samples;Min_cycle;Max_cycle;Signal;HPM_P1;HPM_P2
2022/11/19 00:01:14;;;;;;;29.92;18.33;;;;;;;4.83;100.00;100789.63;5035166;28;20025;-80
2022/11/19 00:03:41;;;;;;;27.33;17.60;;;;;;;4.82;100.00;100787.97;5035342;28;20051;-78
2022/11/19 00:06:12;;;;;;;28.73;17.30;;;;;;;4.82;100.00;100791.34;5035058;28;20062;-80
2022/11/19 00:08:38;;;;;;;29.30;18.08;;;;;;;4.62;100.00;100770.81;5035166;28;20051;-80
2022/11/19 00:11:09;;;;;;;29.45;18.23;;;;;;;4.70;100.00;100791.81;5035300;28;20116;-80
2022/11/19 00:13:36;;;;;;;29.77;17.75;;;;;;;4.67;100.00;100799.59;5035256;28;20021;-79
2022/11/19 00:16:04;;;;;;;29.08;18.20;;;;;;;4.60;100.00;100804.13;5034858;28;20064;-80
2022/11/19 00:18:29;;;;;;;30.45;17.83;;;;;;;4.58;100.00;100802.53;5034810;28;20041;-79
2022/11/19 00:20:55;;;;;;;31.27;19.00;;;;;;;4.48;100.00;100783.31;5034839;28;20026;-79
2022/11/19 00:23:21;;;;;;;29.48;18.08;;;;;;;4.47;100.00;100774.81;5034768;28;20101;-79
2022/11/19 00:25:47;;;;;;;27.70;17.38;;;;;;;4.61;100.00;100803.22;5034289;28;20034;-80
2022/11/19 00:28:12;;;;;;;28.08;18.02;;;;;;;4.58;100.00;100799.97;5034901;28;20068;-80
2022/11/19 00:30:37;;;;;;;30.13;17.88;;;;;;;4.53;100.00;100807.81;5034547;28;20045;-80
2022/11/19 00:33:02;;;;;;;28.02;18.02;;;;;;;4.57;100.00;100806.81;5016406;28;20038;-79
2022/11/19 00:35:28;;;;;;;30.13;18.33;;;;;;;4.56;100.00;100800.03;5034735;28;20037;-79
2022/11/19 00:37:53;;;;;;;31.40;18.35;;;;;;;4.46;100.00;100788.50;5020605;28;20104;-79
2022/11/19 00:40:18;;;;;;;28.88;18.17;;;;;;;4.42;100.00;100784.38;5014960;28;20027;-80
2022/11/19 00:43:45;;;;;;;31.75;18.52;;;;;;;4.55;100.00;100811.16;5015001;28;20021;-80
2022/11/19 00:45:29;;;;;;;34.67;19.55;;;;;;;4.39;100.00;100802.38;5014674;28;20265;-80
2022/11/19 00:47:54;;;;;;;36.28;21.65;;;;;;;4.26;100.00;100794.34;5014854;28;20022;-80
2022/11/19 00:50:19;;;;;;;33.42;20.77;;;;;;;4.13;100.00;100795.72;5014424;28;20379;-80
2022/11/19 00:52:45;;;;;;;38.00;21.17;;;;;;;4.14;100.00;100801.66;5014680;28;20026;-79
2022/11/19 00:55:10;;;;;;;39.05;21.05;;;;;;;4.11;100.00;100801.75;5014655;28;20069;-79
2022/11/19 00:57:35;;;;;;;36.50;20.75;;;;;;;4.17;100.00;100812.59;5014614;28;20482;-79
2022/11/19 01:00:01;;;;;;;37.88;21.00;;;;;;;4.19;100.00;100813.34;5014533;28;20021;-79
2022/11/19 01:02:26;;;;;;;31.88;19.50;;;;;;;4.05;100.00;100797.72;5014335;28;20026;-80
2022/11/19 01:04:51;;;;;;;33.95;20.13;;;;;;;4.22;100.00;100820.91;5014331;28;20413;-80
2022/11/19 01:07:16;;;;;;;32.60;20.10;;;;;;;4.21;100.00;100818.41;5014325;28;20022;-80
2022/11/19 01:09:42;;;;;;;37.90;19.42;;;;;;;4.22;100.00;100840.50;5014490;28;20105;-80
2022/11/19 01:12:07;;;;;;;35.25;20.20;;;;;;;4.16;100.00;100836.47;5014527;28;20474;-78
2022/11/19 01:14:32;;;;;;;35.58;19.17;;;;;;;3.92;100.00;100810.06;4997053;28;20037;-78
2022/11/19 01:16:58;;;;;;;31.58;19.05;;;;;;;3.88;100.00;100816.19;5014025;28;20057;-80
2022/11/19 01:19:23;;;;;;;34.42;19.73;;;;;;;4.06;100.00;100839.41;5014310;28;20026;-79
2022/11/19 01:21:48;;;;;;;32.60;19.10;;;;;;;4.01;100.00;100837.00;4996969;28;20099;-79
2022/11/19 01:24:13;;;;;;;29.13;18.73;;;;;;;3.85;100.00;100816.31;5013972;28;20030;-80
2022/11/19 01:26:39;;;;;;;36.22;19.77;;;;;;;3.95;100.00;100830.41;5014178;28;20489;-80
2022/11/19 01:29:04;;;;;;;33.38;20.17;;;;;;;3.96;100.00;100851.69;5014166;28;20030;-80
2022/11/19 01:31:30;;;;;;;33.40;19.88;;;;;;;3.97;100.00;100849.06;5013803;28;20108;-79
2022/11/19 01:33:55;;;;;;;33.17;18.70;;;;;;;4.01;100.00;100854.91;5013916;28;20022;-79
2022/11/19 01:36:24;;;;;;;32.28;19.00;;;;;;;3.95;100.00;100853.41;5013950;28;20394;-78
2022/11/19 01:38:49;;;;;;;33.83;19.58;;;;;;;4.00;100.00;100866.00;4996187;28;20383;-79
2022/11/19 01:41:23;;;;;;;30.50;18.33;;;;;;;3.93;100.00;100849.22;5013937;28;20033;-79
2022/11/19 01:43:51;;;;;;;28.17;17.70;;;;;;;4.03;100.00;100865.91;5013821;28;20096;-79
2022/11/19 01:46:20;;;;;;;29.02;17.60;;;;;;;3.99;100.00;100869.47;4995960;28;20505;-80
2022/11/19 01:48:51;;;;;;;30.90;18.08;;;;;;;3.97;100.00;100863.56;5013668;28;20053;-79
2022/11/19 01:51:27;;;;;;;31.63;18.60;;;;;;;3.95;100.00;100873.84;5013526;28;20061;-79
2022/11/19 01:53:56;;;;;;;29.55;17.10;;;;;;;3.81;100.00;100860.69;5013862;28;20030;-79
2022/11/19 01:56:23;;;;;;;28.00;17.00;;;;;;;3.89;100.00;100875.78;5013631;28;20481;-80
2022/11/19 01:58:54;;;;;;;27.27;17.63;;;;;;;3.79;100.00;100882.91;5013485;28;20030;-78
2022/11/19 02:01:21;;;;;;;27.27;17.15;;;;;;;3.76;100.00;100884.75;5013646;28;20021;-79
2022/11/19 02:03:48;;;;;;;27.30;17.17;;;;;;;3.67;100.00;100886.72;5013250;28;20037;-80
2022/11/19 02:06:13;;;;;;;30.58;17.80;;;;;;;3.53;100.00;100865.06;5013435;28;20437;-80
2022/11/19 02:08:48;;;;;;;28.38;18.38;;;;;;;3.68;100.00;100890.09;5013678;28;20030;-80
2022/11/19 02:11:20;;;;;;;29.77;18.58;;;;;;;3.63;100.00;100892.81;5013636;28;20061;-80
2022/11/19 02:13:54;;;;;;;30.83;18.45;;;;;;;3.52;100.00;100896.59;4995749;28;20022;-80
2022/11/19 02:16:31;;;;;;;31.77;17.50;;;;;;;3.26;100.00;100849.81;5013503;28;20398;-79
2022/11/19 02:19:16;;;;;;;32.00;18.30;;;;;;;3.51;100.00;100894.94;5013180;28;20032;-77
2022/11/19 02:22:14;;;;;;;29.02;17.90;;;;;;;3.48;100.00;100900.16;5012681;28;20116;-78
2022/11/19 02:25:06;;;;;;;30.02;18.92;;;;;;;3.41;100.00;100902.06;5013369;28;20033;-77
2022/11/19 02:27:53;;;;;;;35.15;19.42;;;;;;;3.25;100.00;100903.44;5010250;28;20045;-78
2022/11/19 02:30:19;;;;;;;27.98;18.48;;;;;;;3.13;100.00;100891.88;5013425;28;20057;-78
2022/11/19 02:32:58;;;;;;;29.45;18.30;;;;;;;3.02;100.00;100893.94;5013192;28;20482;-79
2022/11/19 02:35:45;;;;;;;33.15;19.63;;;;;;;2.95;100.00;100897.53;5013365;28;20385;-78
2022/11/19 02:38:34;;;;;;;30.02;18.05;;;;;;;2.71;100.00;100879.56;5013236;28;20030;-78
2022/11/19 02:41:33;;;;;;;29.23;19.15;;;;;;;2.58;100.00;100868.91;4996180;28;20474;-79
2022/11/19 02:46:56;;;;;;;29.60;18.60;;;;;;;2.67;100.00;100902.66;5013463;28;20045;-79
2022/11/19 02:49:26;;;;;;;28.70;18.00;;;;;;;2.59;100.00;100901.16;5017007;28;20111;-79
2022/11/19 02:51:52;;;;;;;30.42;18.05;;;;;;;2.57;100.00;100913.13;5016919;28;20493;-79
2022/11/19 02:54:17;;;;;;;29.02;18.65;;;;;;;2.46;100.00;100896.44;5016920;28;20032;-78
2022/11/19 02:56:55;;;;;;;29.15;18.17;;;;;;;2.54;100.00;100914.91;4999036;28;20033;-80
2022/11/19 03:05:05;;;;;;;33.05;19.42;;;;;;;2.37;100.00;100912.00;5016660;28;20041;-79
2022/11/19 03:07:30;;;;;;;32.50;19.88;;;;;;;2.38;100.00;100926.41;5016912;28;20060;-79
2022/11/19 03:09:59;;;;;;;34.63;20.25;;;;;;;2.31;100.00;100915.53;5016635;28;20306;-79
2022/11/19 03:12:41;;;;;;;30.50;17.90;;;;;;;2.41;100.00;100927.16;5016782;28;20112;-78
2022/11/19 03:18:36;;;;;;;30.75;19.15;;;;;;;2.33;100.00;100931.63;4937264;29;20042;-80
2022/11/19 03:21:07;;;;;;;34.22;18.95;;;;;;;2.37;100.00;100928.13;4936927;29;20023;-79
2022/11/19 03:23:38;;;;;;;38.33;20.92;;;;;;;2.22;100.00;100903.88;4936777;29;20499;-79
2022/11/19 03:26:08;;;;;;;32.45;20.00;;;;;;;2.39;100.00;100928.09;4936617;29;20043;-80
2022/11/19 03:28:36;;;;;;;29.88;19.13;;;;;;;2.46;100.00;100937.22;4936622;29;20400;-80
2022/11/19 03:31:04;;;;;;;33.20;19.13;;;;;;;2.44;100.00;100933.88;4936716;29;20086;-80
2022/11/19 03:33:42;;;;;;;31.17;19.65;;;;;;;2.47;100.00;100936.34;4936695;29;20031;-80
2022/11/19 03:36:11;;;;;;;34.47;19.35;;;;;;;2.46;100.00;100934.66;4936570;29;20047;-80
2022/11/19 03:38:43;;;;;;;34.63;20.20;;;;;;;2.44;100.00;100941.53;4936421;29;20042;-80
2022/11/19 03:41:12;;;;;;;37.53;20.80;;;;;;;2.44;100.00;100933.88;4920485;29;20028;-80
2022/11/19 03:43:41;;;;;;;37.13;19.85;;;;;;;2.45;100.00;100935.53;4936520;29;20036;-80
2022/11/19 03:46:12;;;;;;;32.13;20.33;;;;;;;2.47;100.00;100936.34;4936402;29;20042;-79
2022/11/19 03:48:39;;;;;;;33.70;19.45;;;;;;;2.48;100.00;100940.56;4967481;28;20049;-80
2022/11/19 03:51:40;;;;;;;33.58;19.40;;;;;;;2.47;100.00;100939.75;5015445;28;20045;-79
2022/11/19 03:54:06;;;;;;;33.33;19.25;;;;;;;2.43;100.00;100932.19;4936137;29;20044;-78
2022/11/19 03:56:35;;;;;;;31.77;19.40;;;;;;;2.47;100.00;100939.75;4936202;29;20376;-76
2022/11/19 03:59:02;;;;;;;31.23;19.85;;;;;;;2.36;100.00;100925.59;4935075;29;20123;-80
2022/11/19 04:01:27;;;;;;;33.60;19.27;;;;;;;2.47;100.00;100951.66;4936264;29;20030;-80
2022/11/19 04:06:36;;;;;;;34.17;20.33;;;;;;;2.43;100.00;100937.31;4936031;29;20113;-80
2022/11/19 04:09:02;;;;;;;35.25;20.65;;;;;;;2.47;100.00;100949.94;4936073;29;20020;-79
2022/11/19 04:11:27;;;;;;;32.53;19.80;;;;;;;2.43;100.00;100955.97;4935995;29;20480;-79
2022/11/19 04:13:52;;;;;;;35.05;20.45;;;;;;;2.47;100.00;100957.59;4935970;29;20535;-79
2022/11/19 04:16:18;;;;;;;32.45;20.05;;;;;;;2.46;100.00;100961.00;4935902;29;20126;-79
2022/11/19 04:18:43;;;;;;;33.10;19.95;;;;;;;2.47;100.00;100959.31;4935825;29;20122;-80
2022/11/19 04:21:08;;;;;;;37.88;22.00;;;;;;;2.44;100.00;100959.34;4935591;29;20039;-80
2022/11/19 04:23:33;;;;;;;40.22;22.52;;;;;;;2.29;100.00;100946.16;4935735;29;20044;-80
2022/11/19 04:25:59;;;;;;;37.40;22.08;;;;;;;2.20;100.00;100943.03;4935734;29;20084;-79
2022/11/19 04:28:24;;;;;;;36.95;21.20;;;;;;;2.36;100.00;100974.00;4935788;29;20111;-79
2022/11/19 04:30:49;;;;;;;35.55;21.13;;;;;;;2.19;100.00;100949.00;4990440;28;20041;-78
2022/11/19 04:33:15;;;;;;;40.60;22.38;;;;;;;2.37;100.00;100981.66;5015145;28;20034;-78
2022/11/19 04:35:43;;;;;;;38.08;22.85;;;;;;;2.39;100.00;100984.16;5014927;28;20014;-79
2022/11/19 04:38:08;;;;;;;36.72;22.98;;;;;;;2.25;100.00;100959.84;5015141;28;20118;-79
2022/11/19 04:40:34;;;;;;;38.03;23.13;;;;;;;2.39;100.00;100984.97;5015084;28;20057;-80
2022/11/19 04:42:59;;;;;;;40.30;23.30;;;;;;;2.34;100.00;100986.81;5014892;28;20036;-79
2022/11/19 04:45:25;;;;;;;37.35;22.70;;;;;;;2.22;100.00;100971.84;5014872;28;20029;-78
2022/11/19 04:47:50;;;;;;;44.20;24.80;;;;;;;2.25;100.00;100982.78;5014552;28;20026;-79
2022/11/19 04:50:15;;;;;;;39.40;23.77;;;;;;;2.21;100.00;100993.94;5014429;28;20072;-80
2022/11/19 04:52:41;;;;;;;40.70;24.35;;;;;;;2.11;100.00;100984.88;5014983;28;20432;-79
2022/11/19 04:55:06;;;;;;;41.15;24.40;;;;;;;2.07;100.00;100978.19;5014886;28;20377;-79
2022/11/19 04:57:32;;;;;;;41.08;24.08;;;;;;;2.03;100.00;100974.03;5014619;28;20037;-80
2022/11/19 04:59:57;;;;;;;41.05;23.50;;;;;;;2.14;100.00;100984.78;5014822;28;20100;-78
2022/11/19 05:02:22;;;;;;;42.17;25.08;;;;;;;2.21;100.00;100993.94;4996827;28;20052;-79
2022/11/19 05:04:48;;;;;;;43.97;24.52;;;;;;;2.22;100.00;100999.88;5014447;28;20033;-79
2022/11/19 05:07:13;;;;;;;40.97;24.65;;;;;;;2.26;100.00;101007.41;4996036;28;20500;-80
2022/11/19 05:09:38;;;;;;;41.80;24.55;;;;;;;2.28;100.00;101015.00;5014667;28;20036;-80
2022/11/19 05:12:04;;;;;;;39.60;25.70;;;;;;;2.20;100.00;101014.38;5014301;28;20022;-80
2022/11/19 05:14:29;;;;;;;42.40;25.23;;;;;;;2.18;100.00;101016.13;5014178;28;20037;-78
2022/11/19 05:16:55;;;;;;;43.10;25.23;;;;;;;2.05;100.00;101005.38;5014225;28;20028;-79
2022/11/19 05:19:20;;;;;;;41.85;25.27;;;;;;;2.11;100.00;101019.69;5014364;28;20044;-79
2022/11/19 05:21:45;;;;;;;43.17;25.23;;;;;;;2.14;100.00;101020.44;5014143;28;20046;-80
2022/11/19 05:24:11;;;;;;;42.75;24.58;;;;;;;2.15;100.00;101034.84;5014327;28;20017;-80
2022/11/19 05:26:36;;;;;;;43.50;26.27;;;;;;;2.03;100.00;101019.88;5014330;28;20110;-80
2022/11/19 05:29:01;;;;;;;43.35;25.05;;;;;;;2.08;100.00;101035.06;5029392;28;20454;-80
2022/11/19 05:31:27;;;;;;;44.72;26.42;;;;;;;2.03;100.00;101027.50;5014038;28;20116;-80
2022/11/19 05:33:52;;;;;;;43.25;25.00;;;;;;;1.99;100.00;101033.56;5014052;28;20026;-79
2022/11/19 05:36:17;;;;;;;41.13;25.27;;;;;;;1.96;100.00;101036.16;5013694;28;20084;-80
2022/11/19 05:38:43;;;;;;;44.05;25.52;;;;;;;1.92;100.00;101037.97;5014160;28;20026;-80
2022/11/19 05:41:08;;;;;;;43.35;26.77;;;;;;;1.90;100.00;101037.16;5013930;28;20072;-80
2022/11/19 05:43:33;;;;;;;43.20;25.02;;;;;;;1.90;100.00;101041.44;5013767;28;20101;-80
2022/11/19 05:46:00;;;;;;;41.97;25.33;;;;;;;1.86;100.00;101027.91;5013817;28;20125;-80
2022/11/19 05:48:25;;;;;;;40.85;25.17;;;;;;;1.90;100.00;101042.25;5013804;28;20100;-81
2022/11/19 05:50:50;;;;;;;45.42;26.52;;;;;;;1.69;100.00;101013.06;5013632;28;20081;-79
2022/11/19 05:53:16;;;;;;;42.60;26.17;;;;;;;1.87;100.00;101038.94;5013497;28;20091;-79
2022/11/19 05:55:41;;;;;;;44.08;26.27;;;;;;;1.72;100.00;101030.78;5013729;28;20048;-80
2022/11/19 05:58:06;;;;;;;43.50;26.42;;;;;;;1.81;100.00;101052.66;5013691;28;20108;-80
2022/11/19 06:00:32;;;;;;;46.00;26.33;;;;;;;1.81;100.00;101062.00;5013653;28;20100;-80
2022/11/19 06:02:57;;;;;;;43.30;25.60;;;;;;;1.78;100.00;101060.38;5013635;28;20029;-80
2022/11/19 06:05:22;;;;;;;46.08;27.23;;;;;;;1.60;100.00;101036.19;4995530;28;20042;-79
2022/11/19 06:07:48;;;;;;;46.92;27.70;;;;;;;1.74;100.00;101056.22;5013332;28;20029;-80
2022/11/19 06:10:13;;;;;;;47.20;28.17;;;;;;;1.62;100.00;101042.06;5013496;28;20112;-79
2022/11/19 06:12:40;;;;;;;46.35;27.15;;;;;;;1.58;100.00;101032.00;5013536;28;20036;-80
2022/11/19 06:15:06;;;;;;;48.65;28.02;;;;;;;1.76;100.00;101069.75;5013437;28;20371;-79
2022/11/19 06:17:32;;;;;;;44.53;27.17;;;;;;;1.76;100.00;101069.75;5013472;28;20026;-80
2022/11/19 06:19:57;;;;;;;47.58;28.40;;;;;;;1.75;100.00;101078.25;5013366;28;20176;-80
2022/11/19 06:22:22;;;;;;;49.65;29.73;;;;;;;1.72;100.00;101078.34;5012402;28;20037;-80
2022/11/19 06:24:48;;;;;;;46.58;27.67;;;;;;;1.70;100.00;101086.00;5013242;28;20038;-80
2022/11/19 06:27:13;;;;;;;50.03;29.73;;;;;;;1.71;100.00;101086.84;5013332;28;20053;-79
2022/11/19 06:29:38;;;;;;;47.40;27.67;;;;;;;1.70;100.00;101087.72;5013291;28;20500;-79
2022/11/19 06:32:04;;;;;;;48.22;29.35;;;;;;;1.68;100.00;101097.09;5013342;28;20026;-79
2022/11/19 06:34:29;;;;;;;50.58;29.42;;;;;;;1.66;100.00;101099.66;5013296;28;20076;-80
2022/11/19 06:36:54;;;;;;;49.25;28.92;;;;;;;1.65;100.00;101104.78;5013195;28;20022;-80
2022/11/19 06:39:19;;;;;;;50.20;30.48;;;;;;;1.64;100.00;101110.75;5012974;28;20137;-80
2022/11/19 06:41:47;;;;;;;52.15;29.75;;;;;;;1.57;100.00;101106.66;5013096;28;20152;-79
2022/11/19 06:44:12;;;;;;;50.83;30.48;;;;;;;1.63;100.00;101111.63;5013092;28;20029;-80
2022/11/19 06:46:38;;;;;;;50.00;30.77;;;;;;;1.49;100.00;101091.56;5013215;28;20371;-79
2022/11/19 06:49:04;;;;;;;49.13;28.73;;;;;;;1.60;100.00;101117.63;5013225;28;20026;-79
2022/11/19 06:51:30;;;;;;;50.42;30.42;;;;;;;1.57;100.00;101106.66;4994657;28;20053;-79
2022/11/19 06:53:55;;;;;;;52.05;29.75;;;;;;;1.60;100.00;101115.06;5012696;28;20022;-79
2022/11/19 06:56:20;;;;;;;49.05;29.98;;;;;;;1.43;100.00;101084.88;5013054;28;20026;-79
2022/11/19 06:58:45;;;;;;;50.15;28.90;;;;;;;1.55;100.00;101118.56;5013253;28;20120;-79
2022/11/19 07:01:13;;;;;;;52.35;31.40;;;;;;;1.46;100.00;101078.06;5012983;28;20052;-78
2022/11/19 07:03:39;;;;;;;49.00;29.48;;;;;;;1.43;100.00;101101.88;5013042;28;20599;-80
2022/11/19 07:06:05;;;;;;;48.55;29.05;;;;;;;1.58;100.00;101131.25;5012843;28;20029;-79
2022/11/19 07:08:33;;;;;;;51.55;30.52;;;;;;;1.58;100.00;101132.09;5012671;28;20401;-80
2022/11/19 07:10:59;;;;;;;51.00;29.88;;;;;;;1.48;100.00;101122.97;5012748;28;20033;-79
2022/11/19 07:13:55;;;;;;;51.17;29.65;;;;;;;1.52;100.00;101136.47;5012916;28;20030;-79
2022/11/19 07:16:09;;;;;;;51.47;29.50;;;;;;;1.33;100.00;101101.22;5012876;28;20042;-80
2022/11/19 07:18:35;;;;;;;49.33;28.83;;;;;;;1.36;100.00;101101.16;5012950;28;20026;-78
2022/11/19 07:21:00;;;;;;;57.13;31.10;;;;;;;1.61;100.00;101138.81;5012704;28;20454;-79
2022/11/19 07:23:25;;;;;;;53.45;30.55;;;;;;;1.62;100.00;101143.03;5012354;28;20033;-78
2022/11/19 07:25:59;;;;;;;56.35;31.33;;;;;;;1.24;100.00;101087.84;5012852;28;20026;-79
2022/11/19 07:28:25;;;;;;;50.53;30.13;;;;;;;1.57;100.00;101150.75;5012985;28;20432;-79
2022/11/19 07:30:50;;;;;;;53.63;30.50;;;;;;;1.37;100.00;101119.78;4995156;28;20034;-79
2022/11/19 07:33:15;;;;;;;54.17;31.35;;;;;;;1.52;100.00;101154.28;5013518;28;20065;-79
2022/11/19 07:35:41;;;;;;;53.25;29.65;;;;;;;1.54;100.00;101160.16;5016081;28;20097;-79
2022/11/19 07:38:07;;;;;;;55.90;31.23;;;;;;;1.50;100.00;101161.94;5015879;28;20133;-79
2022/11/19 07:40:32;;;;;;;52.95;30.23;;;;;;;1.46;98.52;101167.97;5015996;28;20096;-78
2022/11/19 07:42:57;;;;;;;54.25;30.70;;;;;;;1.40;99.44;101168.94;5015967;28;20025;-79
2022/11/19 07:45:23;;;;;;;51.25;30.42;;;;;;;1.30;99.78;101162.34;5016071;28;20026;-78
2022/11/19 07:47:48;;;;;;;56.88;31.40;;;;;;;1.40;99.97;101171.47;5015855;28;20037;-79
2022/11/19 07:50:15;;;;;;;52.50;30.63;;;;;;;1.42;100.00;101179.91;4997078;28;20053;-77
2022/11/19 07:52:42;;;;;;;56.83;31.02;;;;;;;1.39;99.32;101167.25;5015817;28;20033;-79
2022/11/19 07:55:08;;;;;;;55.85;30.88;;;;;;;1.47;100.00;101182.34;5015494;28;20553;-78
2022/11/19 07:57:34;;;;;;;54.83;29.83;;;;;;;1.37;99.98;101166.44;5015710;28;20018;-79
2022/11/19 07:59:59;;;;;;;52.65;30.30;;;;;;;1.51;99.46;101185.69;5015681;28;20033;-79
2022/11/19 08:02:24;;;;;;;57.75;30.52;;;;;;;1.55;99.21;101184.75;5015719;28;20014;-78
2022/11/19 08:04:50;;;;;;;52.33;29.70;;;;;;;1.56;98.91;101183.88;5014546;28;20030;-77
2022/11/19 08:07:15;;;;;;;49.75;29.90;;;;;;;1.57;98.81;101177.91;5015964;28;20022;-78
2022/11/19 08:09:40;;;;;;;52.80;29.25;;;;;;;1.57;99.29;101188.94;5015250;28;20490;-78
2022/11/19 08:12:06;;;;;;;52.25;29.85;;;;;;;1.57;99.07;101188.09;4997483;28;20378;-78
2022/11/19 08:14:31;;;;;;;52.17;31.40;;;;;;;1.51;97.63;101190.78;4998030;28;20034;-77
2022/11/19 08:19:41;;;;;;;55.70;29.98;;;;;;;1.36;99.24;101174.09;5015294;28;20092;-81
2022/11/19 08:22:10;;;;;;;51.67;28.58;;;;;;;1.32;98.34;101168.25;5015074;28;20029;-78
2022/11/19 08:24:35;;;;;;;50.80;29.58;;;;;;;1.43;98.04;101193.47;5015014;28;20088;-79
2022/11/19 08:27:04;;;;;;;51.88;29.67;;;;;;;1.44;98.03;101195.16;5015200;28;20022;-78
2022/11/19 08:29:29;;;;;;;49.85;28.58;;;;;;;1.49;98.51;101200.16;5015284;28;20092;-77
2022/11/19 08:31:55;;;;;;;51.00;29.15;;;;;;;1.54;97.78;101211.91;5015157;28;20030;-78
2022/11/19 08:34:20;;;;;;;50.85;27.30;;;;;;;1.39;97.40;101185.06;5015116;28;20036;-78
2022/11/19 08:36:46;;;;;;;53.58;29.90;;;;;;;1.32;97.43;101191.13;5014954;28;20022;-78
2022/11/19 08:39:11;;;;;;;53.83;30.85;;;;;;;1.47;97.28;101215.44;5014943;28;20076;-77
2022/11/19 08:44:20;;;;;;;51.67;29.00;;;;;;;1.46;97.31;101215.47;5015137;28;20076;-79
2022/11/19 08:46:46;;;;;;;52.45;29.55;;;;;;;1.47;97.12;101225.63;5029582;28;20436;-78
2022/11/19 08:49:12;;;;;;;50.60;28.85;;;;;;;1.53;97.05;101222.97;5014728;28;20030;-76
2022/11/19 08:51:37;;;;;;;50.15;28.40;;;;;;;1.40;96.67;101196.91;5012358;28;20076;-78
2022/11/19 08:54:04;;;;;;;56.38;29.98;;;;;;;1.57;97.12;101224.56;5014799;28;20033;-79
2022/11/19 08:56:29;;;;;;;53.03;28.80;;;;;;;1.45;97.31;101199.38;5014505;28;20036;-79
2022/11/19 08:58:55;;;;;;;51.33;29.75;;;;;;;1.54;97.73;101211.91;4996982;28;20025;-78
2022/11/19 09:01:21;;;;;;;47.22;26.58;;;;;;;1.65;95.92;101229.50;5014463;28;20072;-79
2022/11/19 09:03:46;;;;;;;53.35;28.42;;;;;;;1.65;96.07;101226.97;5014549;28;20030;-79
2022/11/19 09:06:12;;;;;;;50.47;28.05;;;;;;;1.62;95.86;101232.13;5014379;28;20026;-79
2022/11/19 09:08:38;;;;;;;51.00;28.05;;;;;;;1.67;95.78;101233.72;5014548;28;20029;-77
2022/11/19 09:11:16;;;;;;;50.63;29.45;;;;;;;1.58;95.55;101212.72;5014376;28;20018;-76
2022/11/19 09:13:41;;;;;;;46.55;27.00;;;;;;;1.67;95.99;101232.88;5014394;28;20029;-78
2022/11/19 09:16:08;;;;;;;53.00;29.65;;;;;;;1.74;96.47;101242.06;5014046;28;20041;-77
2022/11/19 09:18:37;;;;;;;53.47;28.63;;;;;;;1.70;95.92;101227.72;5014225;28;20034;-78
2022/11/19 09:21:04;;;;;;;45.03;25.55;;;;;;;1.53;95.53;101206.84;5014199;28;20123;-78
2022/11/19 09:23:29;;;;;;;48.45;28.42;;;;;;;1.38;95.08;101198.66;5014447;28;20030;-78
2022/11/19 09:25:55;;;;;;;50.45;29.38;;;;;;;1.60;96.42;101231.34;5013573;28;20029;-78
2022/11/19 09:28:21;;;;;;;48.63;27.73;;;;;;;1.69;96.81;101236.25;5014049;28;20104;-78
2022/11/19 09:30:57;;;;;;;46.50;26.38;;;;;;;1.59;95.99;101222.03;5014232;28;20104;-78
2022/11/19 09:33:22;;;;;;;47.70;27.25;;;;;;;1.59;96.04;101229.66;5014145;28;20032;-79
2022/11/19 09:35:48;;;;;;;48.88;27.65;;;;;;;1.43;95.13;101207.03;5013799;28;20022;-77
2022/11/19 09:38:13;;;;;;;44.05;26.08;;;;;;;1.59;95.87;101227.94;5013879;28;20079;-78
2022/11/19 09:40:43;;;;;;;50.72;27.55;;;;;;;1.54;94.42;101211.06;5013772;28;20092;-79
2022/11/19 09:43:37;;;;;;;45.47;26.10;;;;;;;1.76;94.00;101255.59;5028302;23;20077;-79
2022/11/19 09:46:20;;;;;;;45.30;25.70;;;;;;;1.72;94.37;101266.72;5015737;28;20119;-78
2022/11/19 09:49:02;;;;;;;45.30;25.90;;;;;;;1.55;94.91;101239.03;5033605;28;20030;-78
2022/11/19 09:51:31;;;;;;;49.05;26.75;;;;;;;1.09;94.82;101178.84;5033425;28;20040;-78
2022/11/19 09:54:02;;;;;;;47.45;27.38;;;;;;;1.76;94.81;101277.66;5033241;28;20070;-79
2022/11/19 09:56:41;;;;;;;47.72;27.17;;;;;;;0.98;95.14;101136.66;5032474;28;20112;-79
2022/11/19 09:59:26;;;;;;;45.00;26.77;;;;;;;1.43;94.55;101214.66;5032915;28;20044;-79
2022/11/19 10:02:11;;;;;;;48.30;27.60;;;;;;;1.46;94.35;101212.91;5015410;28;20040;-78
2022/11/19 10:04:46;;;;;;;44.78;25.65;;;;;;;0.66;93.17;101071.16;5033272;28;20029;-78
2022/11/19 10:09:48;;;;;;;46.92;26.48;;;;;;;1.81;94.35;101292.00;5020030;23;20116;-77
2022/11/19 10:12:32;;;;;;;41.92;24.63;;;;;;;1.81;93.48;101292.00;4995369;28;20292;-78
2022/11/19 10:15:26;;;;;;;43.03;24.77;;;;;;;1.78;94.40;101297.16;5013308;28;20033;-79
2022/11/19 10:18:10;;;;;;;44.20;25.42;;;;;;;1.76;92.42;101296.34;4994269;28;20042;-79
2022/11/19 10:20:57;;;;;;;47.25;26.13;;;;;;;1.79;93.82;101298.00;5013232;28;20032;-79
2022/11/19 10:23:48;;;;;;;42.20;24.75;;;;;;;1.66;93.89;101267.66;5013398;28;20385;-79
2022/11/19 10:26:21;;;;;;;41.85;22.88;;;;;;;1.43;91.71;101212.13;5012620;28;20042;-79
2022/11/19 10:29:26;;;;;;;42.50;24.40;;;;;;;1.90;92.18;101311.38;5013050;28;20378;-79
2022/11/19 10:32:39;;;;;;;43.42;24.73;;;;;;;1.43;91.97;101239.28;5013078;28;20129;-78
2022/11/19 10:35:21;;;;;;;41.33;23.45;;;;;;;1.74;92.03;101300.63;4952540;29;20035;-78
2022/11/19 10:38:15;;;;;;;41.65;23.60;;;;;;;1.80;90.50;101312.41;4952966;28;20098;-78
2022/11/19 10:40:59;;;;;;;41.55;24.15;;;;;;;0.81;90.05;101153.06;4952887;29;20090;-79
2022/11/19 10:43:53;;;;;;;40.95;23.10;;;;;;;1.30;89.51;101241.22;4936342;29;20471;-79
2022/11/19 10:46:24;;;;;;;39.70;23.27;;;;;;;1.77;90.18;101308.22;4952558;29;20035;-77
2022/11/19 10:49:00;;;;;;;42.83;23.55;;;;;;;1.44;89.96;101246.88;4952800;29;20062;-79
2022/11/19 10:51:34;;;;;;;41.20;22.95;;;;;;;1.64;90.53;101278.75;4952698;29;20042;-78
2022/11/19 10:54:03;;;;;;;36.88;21.33;;;;;;;1.80;89.39;101310.69;4935866;29;20459;-79
2022/11/19 10:56:38;;;;;;;41.53;23.90;;;;;;;1.57;89.92;101283.09;4952725;29;20082;-78
2022/11/19 10:59:20;;;;;;;42.17;22.63;;;;;;;1.67;90.80;101296.50;4952505;29;20035;-79
2022/11/19 11:01:57;;;;;;;41.70;22.73;;;;;;;1.77;91.42;101305.69;4952593;29;20216;-79
2022/11/19 11:04:25;;;;;;;38.40;21.42;;;;;;;1.65;89.69;101300.78;4952140;29;20093;-79
2022/11/19 11:06:58;;;;;;;41.70;24.95;;;;;;;1.74;90.41;101315.91;4952593;29;20090;-79
2022/11/19 11:09:44;;;;;;;36.85;21.73;;;;;;;1.13;89.42;101213.53;4959446;28;20511;-79
2022/11/19 11:15:14;;;;;;;34.88;20.88;;;;;;;1.79;89.74;101314.13;5016791;28;20101;-79
2022/11/19 11:17:41;;;;;;;37.47;21.90;;;;;;;1.61;89.85;101273.72;5016495;28;20036;-79
2022/11/19 11:20:12;;;;;;;34.40;20.17;;;;;;;1.85;89.01;101319.06;5016429;28;20532;-79
2022/11/19 11:22:38;;;;;;;34.20;20.02;;;;;;;1.61;88.34;101284.75;4998860;28;20034;-79
2022/11/19 11:25:17;;;;;;;33.92;20.80;;;;;;;1.73;88.40;101314.22;5016158;28;20026;-78
2022/11/19 11:27:42;;;;;;;38.25;21.15;;;;;;;1.60;88.73;101293.25;5016228;28;20054;-78
2022/11/19 11:30:10;;;;;;;33.95;19.33;;;;;;;1.65;88.65;101310.97;5016384;28;20429;-79
2022/11/19 11:32:37;;;;;;;32.88;18.73;;;;;;;1.32;87.26;101259.00;5016358;28;20113;-79
2022/11/19 11:35:04;;;;;;;33.17;19.35;;;;;;;0.69;87.56;101166.00;5016128;28;20033;-79
2022/11/19 11:37:30;;;;;;;31.58;18.50;;;;;;;1.42;88.45;101268.97;5015100;28;20477;-78
2022/11/19 11:39:57;;;;;;;32.20;17.27;;;;;;;1.67;88.13;101294.81;4998464;28;20018;-78
2022/11/19 11:42:27;;;;;;;32.42;18.35;;;;;;;1.56;88.79;101283.16;5016247;28;20389;-78
2022/11/19 11:44:59;;;;;;;31.45;18.20;;;;;;;1.39;87.75;101260.56;5015815;28;20026;-77
2022/11/19 11:47:31;;;;;;;31.48;18.00;;;;;;;1.56;87.32;101298.41;5015713;28;20036;-78